sensor_id;sensor_type;location;lat;lon;timestamp;P1;durP1;ratioP1;P2;durP2;ratioP2
6513;SDS011;3290;47.716;9.070;2023-01-28T00:01:48;26.43;;;13.07;;
6513;SDS011;3290;47.716;9.070;2023-01-28T00:04:13;22.40;;;12.30;;
6513;SDS011;3290;47.716;9.070;2023-01-28T00:06:39;24.80;;;12.97;;
6513;SDS011;3290;47.716;9.070;2023-01-28T00:09:04;32.47;;;14.07;;
6513;SDS011;3290;47.716;9.070;2023-01-28T00:11:30;29.43;;;14.13;;
6513;SDS011;3290;47.716;9.070;2023-01-28T00:13:55;25.77;;;13.70;;
6513;SDS011;3290;47.716;9.070;2023-01-28T00:16:20;23.17;;;11.90;;
6513;SDS011;3290;47.716;9.070;2023-01-28T00:18:46;25.80;;;13.33;;
6513;SDS011;3290;47.716;9.070;2023-01-28T00:21:12;22.67;;;11.60;;
6513;SDS011;3290;47.716;9.070;2023-01-28T00:23:39;25.77;;;12.67;;
6513;SDS011;3290;47.716;9.070;2023-01-28T00:26:10;25.30;;;12.70;;
6513;SDS011;3290;47.716;9.070;2023-01-28T00:28:38;29.10;;;12.77;;
6513;SDS011;3290;47.716;9.070;2023-01-28T00:31:22;22.87;;;12.77;;
6513;SDS011;3290;47.716;9.070;2023-01-28T00:33:50;26.10;;;12.70;;
6513;SDS011;3290;47.716;9.070;2023-01-28T00:36:16;25.20;;;13.00;;
6513;SDS011;3290;47.716;9.070;2023-01-28T00:38:42;25.70;;;12.83;;
6513;SDS011;3290;47.716;9.070;2023-01-28T00:41:14;19.33;;;12.07;;
6513;SDS011;3290;47.716;9.070;2023-01-28T00:43:41;22.60;;;12.23;;
6513;SDS011;3290;47.716;9.070;2023-01-28T00:46:09;28.47;;;13.90;;
6513;SDS011;3290;47.716;9.070;2023-01-28T00:48:36;27.80;;;13.93;;
6513;SDS011;3290;47.716;9.070;2023-01-28T00:51:03;26.10;;;13.60;;
6513;SDS011;3290;47.716;9.070;2023-01-28T00:53:28;25.50;;;13.00;;
6513;SDS011;3290;47.716;9.070;2023-01-28T00:55:54;26.80;;;13.83;;
6513;SDS011;3290;47.716;9.070;2023-01-28T00:58:19;25.37;;;12.20;;
6513;SDS011;3290;47.716;9.070;2023-01-28T01:00:45;18.70;;;11.20;;
6513;SDS011;3290;47.716;9.070;2023-01-28T01:03:10;29.70;;;12.10;;
6513;SDS011;3290;47.716;9.070;2023-01-28T01:05:36;21.27;;;11.00;;
6513;SDS011;3290;47.716;9.070;2023-01-28T01:08:01;25.20;;;12.53;;
6513;SDS011;3290;47.716;9.070;2023-01-28T01:10:27;25.80;;;13.33;;
6513;SDS011;3290;47.716;9.070;2023-01-28T01:12:52;21.60;;;11.70;;
6513;SDS011;3290;47.716;9.070;2023-01-28T01:15:18;22.60;;;11.97;;
6513;SDS011;3290;47.716;9.070;2023-01-28T01:17:45;20.83;;;10.70;;
6513;SDS011;3290;47.716;9.070;2023-01-28T01:20:16;21.83;;;12.07;;
6513;SDS011;3290;47.716;9.070;2023-01-28T01:22:44;27.50;;;12.93;;
6513;SDS011;3290;47.716;9.070;2023-01-28T01:25:10;22.50;;;11.90;;
6513;SDS011;3290;47.716;9.070;2023-01-28T01:27:37;22.10;;;12.27;;
6513;SDS011;3290;47.716;9.070;2023-01-28T01:30:02;22.00;;;12.60;;
6513;SDS011;3290;47.716;9.070;2023-01-28T01:32:29;22.20;;;13.60;;
6513;SDS011;3290;47.716;9.070;2023-01-28T01:34:55;23.30;;;13.57;;
6513;SDS011;3290;47.716;9.070;2023-01-28T01:37:20;27.60;;;12.60;;
6513;SDS011;3290;47.716;9.070;2023-01-28T01:39:46;26.13;;;14.53;;
6513;SDS011;3290;47.716;9.070;2023-01-28T01:42:12;29.50;;;13.83;;
6513;SDS011;3290;47.716;9.070;2023-01-28T01:47:34;25.87;;;14.17;;
6513;SDS011;3290;47.716;9.070;2023-01-28T01:50:11;24.70;;;12.90;;
6513;SDS011;3290;47.716;9.070;2023-01-28T01:52:44;27.40;;;14.10;;
6513;SDS011;3290;47.716;9.070;2023-01-28T01:55:12;23.87;;;13.67;;
6513;SDS011;3290;47.716;9.070;2023-01-28T01:57:40;25.07;;;13.30;;
6513;SDS011;3290;47.716;9.070;2023-01-28T02:00:07;23.63;;;13.00;;
6513;SDS011;3290;47.716;9.070;2023-01-28T02:02:35;26.00;;;12.73;;
6513;SDS011;3290;47.716;9.070;2023-01-28T02:05:05;23.23;;;12.20;;
6513;SDS011;3290;47.716;9.070;2023-01-28T02:07:32;25.23;;;12.50;;
6513;SDS011;3290;47.716;9.070;2023-01-28T02:09:58;26.20;;;12.83;;
6513;SDS011;3290;47.716;9.070;2023-01-28T02:12:25;25.67;;;13.83;;
6513;SDS011;3290;47.716;9.070;2023-01-28T02:14:57;28.50;;;13.90;;
6513;SDS011;3290;47.716;9.070;2023-01-28T02:17:26;26.63;;;13.10;;
6513;SDS011;3290;47.716;9.070;2023-01-28T02:19:53;30.07;;;13.27;;
6513;SDS011;3290;47.716;9.070;2023-01-28T02:22:28;24.60;;;13.43;;
6513;SDS011;3290;47.716;9.070;2023-01-28T02:30:41;24.43;;;12.37;;
6513;SDS011;3290;47.716;9.070;2023-01-28T02:33:55;22.97;;;12.67;;
6513;SDS011;3290;47.716;9.070;2023-01-28T02:36:28;25.73;;;11.60;;
6513;SDS011;3290;47.716;9.070;2023-01-28T02:41:35;29.83;;;13.77;;
6513;SDS011;3290;47.716;9.070;2023-01-28T02:44:07;21.97;;;11.90;;
6513;SDS011;3290;47.716;9.070;2023-01-28T02:46:34;22.60;;;10.90;;
6513;SDS011;3290;47.716;9.070;2023-01-28T02:49:26;22.30;;;12.60;;
6513;SDS011;3290;47.716;9.070;2023-01-28T02:52:01;18.37;;;11.20;;
6513;SDS011;3290;47.716;9.070;2023-01-28T02:54:33;24.07;;;12.10;;
6513;SDS011;3290;47.716;9.070;2023-01-28T03:02:45;19.90;;;10.57;;
6513;SDS011;3290;47.716;9.070;2023-01-28T03:08:05;18.97;;;10.67;;
6513;SDS011;3290;47.716;9.070;2023-01-28T03:10:53;18.50;;;10.97;;
6513;SDS011;3290;47.716;9.070;2023-01-28T03:13:39;24.80;;;11.70;;
6513;SDS011;3290;47.716;9.070;2023-01-28T03:16:25;24.97;;;11.60;;
6513;SDS011;3290;47.716;9.070;2023-01-28T03:19:11;22.27;;;11.37;;
6513;SDS011;3290;47.716;9.070;2023-01-28T03:21:56;21.87;;;11.83;;
6513;SDS011;3290;47.716;9.070;2023-01-28T03:24:45;22.03;;;12.50;;
6513;SDS011;3290;47.716;9.070;2023-01-28T03:33:54;27.17;;;13.23;;
6513;SDS011;3290;47.716;9.070;2023-01-28T03:36:41;21.30;;;11.83;;
6513;SDS011;3290;47.716;9.070;2023-01-28T03:39:18;30.87;;;13.43;;
6513;SDS011;3290;47.716;9.070;2023-01-28T03:44:35;18.17;;;9.93;;
6513;SDS011;3290;47.716;9.070;2023-01-28T03:47:21;21.00;;;11.93;;
6513;SDS011;3290;47.716;9.070;2023-01-28T03:49:49;26.23;;;11.13;;
6513;SDS011;3290;47.716;9.070;2023-01-28T03:52:17;19.33;;;11.50;;
6513;SDS011;3290;47.716;9.070;2023-01-28T03:54:47;16.83;;;10.10;;
6513;SDS011;3290;47.716;9.070;2023-01-28T03:57:14;17.90;;;10.43;;
6513;SDS011;3290;47.716;9.070;2023-01-28T03:59:40;19.80;;;9.27;;
6513;SDS011;3290;47.716;9.070;2023-01-28T04:02:06;16.00;;;8.90;;
6513;SDS011;3290;47.716;9.070;2023-01-28T04:04:32;27.77;;;13.43;;
6513;SDS011;3290;47.716;9.070;2023-01-28T04:06:57;27.63;;;13.50;;
6513;SDS011;3290;47.716;9.070;2023-01-28T04:09:23;24.57;;;12.00;;
6513;SDS011;3290;47.716;9.070;2023-01-28T04:11:49;16.70;;;9.90;;
6513;SDS011;3290;47.716;9.070;2023-01-28T04:14:15;16.83;;;9.10;;
6513;SDS011;3290;47.716;9.070;2023-01-28T04:16:42;17.80;;;10.57;;
6513;SDS011;3290;47.716;9.070;2023-01-28T04:19:08;16.93;;;10.33;;
6513;SDS011;3290;47.716;9.070;2023-01-28T04:21:34;18.80;;;10.70;;
6513;SDS011;3290;47.716;9.070;2023-01-28T04:23:59;19.00;;;11.10;;
6513;SDS011;3290;47.716;9.070;2023-01-28T04:26:26;18.60;;;10.03;;
6513;SDS011;3290;47.716;9.070;2023-01-28T04:28:51;17.93;;;9.83;;
6513;SDS011;3290;47.716;9.070;2023-01-28T04:31:17;26.27;;;14.13;;
6513;SDS011;3290;47.716;9.070;2023-01-28T04:33:42;20.27;;;11.70;;
6513;SDS011;3290;47.716;9.070;2023-01-28T04:36:08;19.30;;;10.70;;
6513;SDS011;3290;47.716;9.070;2023-01-28T04:38:33;24.40;;;11.63;;
6513;SDS011;3290;47.716;9.070;2023-01-28T04:40:59;22.97;;;12.50;;
6513;SDS011;3290;47.716;9.070;2023-01-28T04:43:24;19.60;;;11.13;;
6513;SDS011;3290;47.716;9.070;2023-01-28T04:45:49;20.37;;;11.90;;
6513;SDS011;3290;47.716;9.070;2023-01-28T04:48:15;21.13;;;11.00;;
6513;SDS011;3290;47.716;9.070;2023-01-28T04:50:41;23.03;;;13.10;;
6513;SDS011;3290;47.716;9.070;2023-01-28T04:53:07;25.00;;;10.93;;
6513;SDS011;3290;47.716;9.070;2023-01-28T04:55:34;19.13;;;12.23;;
6513;SDS011;3290;47.716;9.070;2023-01-28T04:57:59;23.80;;;12.60;;
6513;SDS011;3290;47.716;9.070;2023-01-28T05:00:24;23.70;;;12.57;;
6513;SDS011;3290;47.716;9.070;2023-01-28T05:02:50;26.60;;;13.30;;
6513;SDS011;3290;47.716;9.070;2023-01-28T05:05:15;25.57;;;12.27;;
6513;SDS011;3290;47.716;9.070;2023-01-28T05:07:41;27.43;;;13.30;;
6513;SDS011;3290;47.716;9.070;2023-01-28T05:10:06;23.93;;;12.53;;
6513;SDS011;3290;47.716;9.070;2023-01-28T05:12:32;29.77;;;14.80;;
6513;SDS011;3290;47.716;9.070;2023-01-28T05:14:58;25.17;;;12.40;;
6513;SDS011;3290;47.716;9.070;2023-01-28T05:17:27;25.80;;;11.43;;
6513;SDS011;3290;47.716;9.070;2023-01-28T05:19:52;24.23;;;13.70;;
6513;SDS011;3290;47.716;9.070;2023-01-28T05:22:18;22.60;;;12.30;;
6513;SDS011;3290;47.716;9.070;2023-01-28T05:24:43;26.23;;;12.90;;
6513;SDS011;3290;47.716;9.070;2023-01-28T05:27:09;22.10;;;11.80;;
6513;SDS011;3290;47.716;9.070;2023-01-28T05:29:34;20.93;;;11.87;;
6513;SDS011;3290;47.716;9.070;2023-01-28T05:31:59;22.30;;;11.47;;
6513;SDS011;3290;47.716;9.070;2023-01-28T05:34:25;22.30;;;10.90;;
6513;SDS011;3290;47.716;9.070;2023-01-28T05:36:50;25.67;;;12.17;;
6513;SDS011;3290;47.716;9.070;2023-01-28T05:39:15;21.73;;;11.10;;
6513;SDS011;3290;47.716;9.070;2023-01-28T05:41:41;27.37;;;11.70;;
6513;SDS011;3290;47.716;9.070;2023-01-28T05:44:06;27.87;;;12.10;;
6513;SDS011;3290;47.716;9.070;2023-01-28T05:46:31;35.87;;;13.53;;
6513;SDS011;3290;47.716;9.070;2023-01-28T05:48:57;23.20;;;12.30;;
6513;SDS011;3290;47.716;9.070;2023-01-28T05:51:22;25.47;;;11.40;;
6513;SDS011;3290;47.716;9.070;2023-01-28T05:53:47;23.10;;;11.57;;
6513;SDS011;3290;47.716;9.070;2023-01-28T05:56:13;28.17;;;11.33;;
6513;SDS011;3290;47.716;9.070;2023-01-28T05:58:38;23.73;;;11.60;;
6513;SDS011;3290;47.716;9.070;2023-01-28T06:01:04;30.93;;;12.27;;
6513;SDS011;3290;47.716;9.070;2023-01-28T06:03:29;20.13;;;11.70;;
6513;SDS011;3290;47.716;9.070;2023-01-28T06:05:54;19.77;;;10.63;;
6513;SDS011;3290;47.716;9.070;2023-01-28T06:08:20;20.70;;;10.13;;
6513;SDS011;3290;47.716;9.070;2023-01-28T06:10:45;21.70;;;11.67;;
6513;SDS011;3290;47.716;9.070;2023-01-28T06:13:11;20.53;;;10.40;;
6513;SDS011;3290;47.716;9.070;2023-01-28T06:15:36;20.67;;;10.73;;
6513;SDS011;3290;47.716;9.070;2023-01-28T06:18:02;23.87;;;11.60;;
6513;SDS011;3290;47.716;9.070;2023-01-28T06:20:27;22.93;;;10.50;;
6513;SDS011;3290;47.716;9.070;2023-01-28T06:22:52;18.93;;;9.73;;
6513;SDS011;3290;47.716;9.070;2023-01-28T06:25:18;21.20;;;11.23;;
6513;SDS011;3290;47.716;9.070;2023-01-28T06:27:43;15.77;;;9.90;;
6513;SDS011;3290;47.716;9.070;2023-01-28T06:30:09;18.97;;;9.90;;
6513;SDS011;3290;47.716;9.070;2023-01-28T06:32:35;16.40;;;9.73;;
6513;SDS011;3290;47.716;9.070;2023-01-28T06:35:00;19.10;;;10.40;;
6513;SDS011;3290;47.716;9.070;2023-01-28T06:37:26;23.47;;;11.40;;
6513;SDS011;3290;47.716;9.070;2023-01-28T06:39:51;19.80;;;10.60;;
6513;SDS011;3290;47.716;9.070;2023-01-28T06:42:17;21.70;;;10.10;;
6513;SDS011;3290;47.716;9.070;2023-01-28T06:44:42;17.17;;;9.93;;
6513;SDS011;3290;47.716;9.070;2023-01-28T06:47:08;19.90;;;10.70;;
6513;SDS011;3290;47.716;9.070;2023-01-28T06:49:35;17.23;;;9.43;;
6513;SDS011;3290;47.716;9.070;2023-01-28T06:52:01;18.40;;;10.40;;
6513;SDS011;3290;47.716;9.070;2023-01-28T06:54:27;21.80;;;10.93;;
6513;SDS011;3290;47.716;9.070;2023-01-28T06:56:52;24.20;;;11.07;;
6513;SDS011;3290;47.716;9.070;2023-01-28T06:59:17;18.70;;;10.10;;
6513;SDS011;3290;47.716;9.070;2023-01-28T07:01:43;19.43;;;10.23;;
6513;SDS011;3290;47.716;9.070;2023-01-28T07:04:08;18.17;;;10.37;;
6513;SDS011;3290;47.716;9.070;2023-01-28T07:06:33;21.83;;;12.00;;
6513;SDS011;3290;47.716;9.070;2023-01-28T07:08:59;25.80;;;11.57;;
6513;SDS011;3290;47.716;9.070;2023-01-28T07:11:24;28.67;;;14.00;;
6513;SDS011;3290;47.716;9.070;2023-01-28T07:13:49;23.40;;;12.47;;
6513;SDS011;3290;47.716;9.070;2023-01-28T07:16:15;17.73;;;10.50;;
6513;SDS011;3290;47.716;9.070;2023-01-28T07:18:41;27.17;;;12.80;;
6513;SDS011;3290;47.716;9.070;2023-01-28T07:21:06;23.90;;;12.17;;
6513;SDS011;3290;47.716;9.070;2023-01-28T07:23:31;19.23;;;10.33;;
6513;SDS011;3290;47.716;9.070;2023-01-28T07:26:00;24.70;;;10.70;;
6513;SDS011;3290;47.716;9.070;2023-01-28T07:28:27;20.10;;;10.07;;
6513;SDS011;3290;47.716;9.070;2023-01-28T07:30:52;20.53;;;10.70;;
6513;SDS011;3290;47.716;9.070;2023-01-28T07:33:18;17.00;;;9.20;;
6513;SDS011;3290;47.716;9.070;2023-01-28T07:35:44;21.90;;;9.53;;
6513;SDS011;3290;47.716;9.070;2023-01-28T07:38:09;20.63;;;10.70;;
6513;SDS011;3290;47.716;9.070;2023-01-28T07:40:35;26.80;;;12.07;;
6513;SDS011;3290;47.716;9.070;2023-01-28T07:43:00;21.60;;;9.80;;
6513;SDS011;3290;47.716;9.070;2023-01-28T07:45:26;25.20;;;10.73;;
6513;SDS011;3290;47.716;9.070;2023-01-28T07:48:01;18.20;;;10.50;;
6513;SDS011;3290;47.716;9.070;2023-01-28T07:50:29;19.50;;;10.30;;
6513;SDS011;3290;47.716;9.070;2023-01-28T07:52:55;23.73;;;11.23;;
6513;SDS011;3290;47.716;9.070;2023-01-28T07:55:21;23.23;;;11.40;;
6513;SDS011;3290;47.716;9.070;2023-01-28T07:57:51;18.03;;;9.67;;
6513;SDS011;3290;47.716;9.070;2023-01-28T08:00:18;19.33;;;9.90;;
6513;SDS011;3290;47.716;9.070;2023-01-28T08:02:44;18.77;;;9.87;;
6513;SDS011;3290;47.716;9.070;2023-01-28T08:05:12;21.80;;;11.53;;
6513;SDS011;3290;47.716;9.070;2023-01-28T08:07:41;20.67;;;10.73;;
6513;SDS011;3290;47.716;9.070;2023-01-28T08:10:07;21.33;;;10.87;;
6513;SDS011;3290;47.716;9.070;2023-01-28T08:12:34;19.07;;;10.60;;
6513;SDS011;3290;47.716;9.070;2023-01-28T08:14:59;21.70;;;10.00;;
6513;SDS011;3290;47.716;9.070;2023-01-28T08:17:24;18.40;;;10.47;;
6513;SDS011;3290;47.716;9.070;2023-01-28T08:19:50;15.80;;;8.30;;
6513;SDS011;3290;47.716;9.070;2023-01-28T08:22:15;19.13;;;9.17;;
6513;SDS011;3290;47.716;9.070;2023-01-28T08:24:40;19.93;;;10.10;;
6513;SDS011;3290;47.716;9.070;2023-01-28T08:27:06;17.67;;;9.40;;
6513;SDS011;3290;47.716;9.070;2023-01-28T08:29:31;18.33;;;9.97;;
6513;SDS011;3290;47.716;9.070;2023-01-28T08:31:57;18.60;;;8.93;;
6513;SDS011;3290;47.716;9.070;2023-01-28T08:34:22;25.70;;;10.97;;
6513;SDS011;3290;47.716;9.070;2023-01-28T08:36:48;14.90;;;7.93;;
6513;SDS011;3290;47.716;9.070;2023-01-28T08:41:44;20.80;;;9.93;;
6513;SDS011;3290;47.716;9.070;2023-01-28T08:44:10;24.60;;;12.67;;
6513;SDS011;3290;47.716;9.070;2023-01-28T08:46:35;17.27;;;10.03;;
6513;SDS011;3290;47.716;9.070;2023-01-28T08:49:00;15.77;;;9.50;;
6513;SDS011;3290;47.716;9.070;2023-01-28T08:51:26;15.77;;;8.20;;
6513;SDS011;3290;47.716;9.070;2023-01-28T08:53:54;13.40;;;8.17;;
6513;SDS011;3290;47.716;9.070;2023-01-28T08:56:19;15.27;;;7.93;;
6513;SDS011;3290;47.716;9.070;2023-01-28T08:58:44;17.00;;;8.50;;
6513;SDS011;3290;47.716;9.070;2023-01-28T09:01:10;15.67;;;8.70;;
6513;SDS011;3290;47.716;9.070;2023-01-28T09:03:35;14.63;;;8.63;;
6513;SDS011;3290;47.716;9.070;2023-01-28T09:06:01;19.87;;;9.73;;
6513;SDS011;3290;47.716;9.070;2023-01-28T09:08:28;13.60;;;8.20;;
6513;SDS011;3290;47.716;9.070;2023-01-28T09:10:54;19.47;;;8.50;;
6513;SDS011;3290;47.716;9.070;2023-01-28T09:13:20;23.00;;;7.63;;
6513;SDS011;3290;47.716;9.070;2023-01-28T09:15:46;13.60;;;8.10;;
6513;SDS011;3290;47.716;9.070;2023-01-28T09:18:11;14.87;;;7.63;;
6513;SDS011;3290;47.716;9.070;2023-01-28T09:20:36;15.93;;;8.40;;
6513;SDS011;3290;47.716;9.070;2023-01-28T09:23:02;16.87;;;8.50;;
6513;SDS011;3290;47.716;9.070;2023-01-28T09:25:28;15.70;;;7.97;;
6513;SDS011;3290;47.716;9.070;2023-01-28T09:27:54;17.40;;;9.80;;
6513;SDS011;3290;47.716;9.070;2023-01-28T09:30:19;15.80;;;9.00;;
6513;SDS011;3290;47.716;9.070;2023-01-28T09:32:48;23.20;;;9.00;;
6513;SDS011;3290;47.716;9.070;2023-01-28T09:35:14;17.57;;;8.10;;
6513;SDS011;3290;47.716;9.070;2023-01-28T09:37:40;10.80;;;6.60;;
6513;SDS011;3290;47.716;9.070;2023-01-28T09:40:06;16.13;;;8.53;;
6513;SDS011;3290;47.716;9.070;2023-01-28T09:45:31;13.07;;;7.33;;
6513;SDS011;3290;47.716;9.070;2023-01-28T09:48:02;23.53;;;10.37;;
6513;SDS011;3290;47.716;9.070;2023-01-28T09:53:27;15.27;;;8.83;;
6513;SDS011;3290;47.716;9.070;2023-01-28T09:55:54;12.50;;;7.10;;
6513;SDS011;3290;47.716;9.070;2023-01-28T09:58:21;19.47;;;9.00;;
6513;SDS011;3290;47.716;9.070;2023-01-28T10:03:27;18.10;;;9.23;;
6513;SDS011;3290;47.716;9.070;2023-01-28T10:06:17;15.93;;;9.30;;
6513;SDS011;3290;47.716;9.070;2023-01-28T10:16:38;24.33;;;9.00;;
6513;SDS011;3290;47.716;9.070;2023-01-28T10:19:09;15.27;;;7.83;;
6513;SDS011;3290;47.716;9.070;2023-01-28T10:21:49;17.47;;;9.00;;
6513;SDS011;3290;47.716;9.070;2023-01-28T10:24:24;17.20;;;8.57;;
6513;SDS011;3290;47.716;9.070;2023-01-28T10:27:11;13.57;;;8.40;;
6513;SDS011;3290;47.716;9.070;2023-01-28T10:29:40;17.77;;;9.00;;
6513;SDS011;3290;47.716;9.070;2023-01-28T10:32:27;19.60;;;8.83;;
6513;SDS011;3290;47.716;9.070;2023-01-28T10:34:54;17.60;;;9.60;;
6513;SDS011;3290;47.716;9.070;2023-01-28T10:37:23;17.27;;;8.40;;
6513;SDS011;3290;47.716;9.070;2023-01-28T10:39:50;16.60;;;9.07;;
6513;SDS011;3290;47.716;9.070;2023-01-28T10:42:30;15.33;;;7.97;;
6513;SDS011;3290;47.716;9.070;2023-01-28T10:45:41;22.00;;;8.50;;
6513;SDS011;3290;47.716;9.070;2023-01-28T10:48:02;16.23;;;8.97;;
6513;SDS011;3290;47.716;9.070;2023-01-28T10:50:32;16.37;;;8.57;;
6513;SDS011;3290;47.716;9.070;2023-01-28T10:53:03;17.30;;;9.27;;
6513;SDS011;3290;47.716;9.070;2023-01-28T10:55:30;19.17;;;9.90;;
6513;SDS011;3290;47.716;9.070;2023-01-28T10:58:13;19.20;;;7.93;;
6513;SDS011;3290;47.716;9.070;2023-01-28T11:00:44;20.20;;;8.77;;
6513;SDS011;3290;47.716;9.070;2023-01-28T11:03:19;17.10;;;9.50;;
6513;SDS011;3290;47.716;9.070;2023-01-28T11:05:50;18.30;;;10.03;;
6513;SDS011;3290;47.716;9.070;2023-01-28T11:08:17;23.50;;;10.27;;
6513;SDS011;3290;47.716;9.070;2023-01-28T11:10:44;17.93;;;8.63;;
6513;SDS011;3290;47.716;9.070;2023-01-28T11:13:20;17.57;;;9.40;;
6513;SDS011;3290;47.716;9.070;2023-01-28T11:18:25;15.70;;;9.10;;
6513;SDS011;3290;47.716;9.070;2023-01-28T11:20:58;23.10;;;10.90;;
6513;SDS011;3290;47.716;9.070;2023-01-28T11:23:27;21.67;;;10.60;;
6513;SDS011;3290;47.716;9.070;2023-01-28T11:26:03;16.73;;;10.50;;
6513;SDS011;3290;47.716;9.070;2023-01-28T11:28:29;18.27;;;10.10;;
6513;SDS011;3290;47.716;9.070;2023-01-28T11:30:56;19.90;;;10.93;;
6513;SDS011;3290;47.716;9.070;2023-01-28T11:35:56;18.77;;;9.93;;
6513;SDS011;3290;47.716;9.070;2023-01-28T11:38:27;19.97;;;10.93;;
6513;SDS011;3290;47.716;9.070;2023-01-28T11:40:53;23.67;;;11.73;;
6513;SDS011;3290;47.716;9.070;2023-01-28T11:43:24;21.43;;;11.40;;
6513;SDS011;3290;47.716;9.070;2023-01-28T11:48:29;21.17;;;10.37;;
6513;SDS011;3290;47.716;9.070;2023-01-28T11:56:52;22.57;;;11.10;;
6513;SDS011;3290;47.716;9.070;2023-01-28T12:12:45;25.43;;;11.60;;
6513;SDS011;3290;47.716;9.070;2023-01-28T12:18:12;19.40;;;10.47;;
6513;SDS011;3290;47.716;9.070;2023-01-28T12:26:48;20.17;;;11.00;;
6513;SDS011;3290;47.716;9.070;2023-01-28T12:29:28;35.40;;;16.47;;
6513;SDS011;3290;47.716;9.070;2023-01-28T12:37:36;37.43;;;16.13;;
6513;SDS011;3290;47.716;9.070;2023-01-28T12:42:39;18.40;;;9.67;;
6513;SDS011;3290;47.716;9.070;2023-01-28T12:45:20;17.60;;;9.23;;
6513;SDS011;3290;47.716;9.070;2023-01-28T12:51:01;22.83;;;11.20;;
6513;SDS011;3290;47.716;9.070;2023-01-28T12:56:36;22.03;;;11.47;;
6513;SDS011;3290;47.716;9.070;2023-01-28T13:01:45;22.30;;;10.83;;
6513;SDS011;3290;47.716;9.070;2023-01-28T13:04:41;20.03;;;9.87;;
6513;SDS011;3290;47.716;9.070;2023-01-28T13:10:04;17.27;;;10.33;;
6513;SDS011;3290;47.716;9.070;2023-01-28T13:12:37;22.97;;;9.90;;
6513;SDS011;3290;47.716;9.070;2023-01-28T13:15:05;17.53;;;9.90;;
6513;SDS011;3290;47.716;9.070;2023-01-28T13:17:35;21.63;;;9.80;;
6513;SDS011;3290;47.716;9.070;2023-01-28T13:20:01;19.30;;;9.83;;
6513;SDS011;3290;47.716;9.070;2023-01-28T13:22:38;20.90;;;10.93;;
6513;SDS011;3290;47.716;9.070;2023-01-28T13:25:22;19.33;;;9.80;;
6513;SDS011;3290;47.716;9.070;2023-01-28T13:27:56;19.67;;;10.47;;
6513;SDS011;3290;47.716;9.070;2023-01-28T13:30:25;15.77;;;9.70;;
6513;SDS011;3290;47.716;9.070;2023-01-28T13:33:05;15.10;;;8.80;;
6513;SDS011;3290;47.716;9.070;2023-01-28T13:35:52;17.30;;;10.47;;
6513;SDS011;3290;47.716;9.070;2023-01-28T13:38:18;17.60;;;9.00;;
6513;SDS011;3290;47.716;9.070;2023-01-28T13:40:56;15.43;;;9.17;;
6513;SDS011;3290;47.716;9.070;2023-01-28T13:45:57;43.50;;;19.27;;
6513;SDS011;3290;47.716;9.070;2023-01-28T13:51:17;17.47;;;9.83;;
6513;SDS011;3290;47.716;9.070;2023-01-28T13:53:47;16.73;;;9.80;;
6513;SDS011;3290;47.716;9.070;2023-01-28T13:56:21;16.03;;;8.57;;
6513;SDS011;3290;47.716;9.070;2023-01-28T14:13:14;17.73;;;8.93;;
6513;SDS011;3290;47.716;9.070;2023-01-28T14:18:46;19.40;;;9.03;;
6513;SDS011;3290;47.716;9.070;2023-01-28T14:21:10;16.27;;;8.50;;
6513;SDS011;3290;47.716;9.070;2023-01-28T14:23:38;16.77;;;8.73;;
6513;SDS011;3290;47.716;9.070;2023-01-28T14:31:35;20.83;;;9.63;;
6513;SDS011;3290;47.716;9.070;2023-01-28T14:37:05;22.80;;;10.63;;
6513;SDS011;3290;47.716;9.070;2023-01-28T14:42:11;14.63;;;7.97;;
6513;SDS011;3290;47.716;9.070;2023-01-28T14:50:15;17.50;;;9.10;;
6513;SDS011;3290;47.716;9.070;2023-01-28T14:58:17;16.87;;;9.27;;
6513;SDS011;3290;47.716;9.070;2023-01-28T15:00:57;14.57;;;8.63;;
6513;SDS011;3290;47.716;9.070;2023-01-28T15:03:24;21.33;;;9.57;;
6513;SDS011;3290;47.716;9.070;2023-01-28T15:06:11;18.37;;;8.80;;
6513;SDS011;3290;47.716;9.070;2023-01-28T15:08:38;15.33;;;8.40;;
6513;SDS011;3290;47.716;9.070;2023-01-28T15:11:04;17.27;;;8.60;;
6513;SDS011;3290;47.716;9.070;2023-01-28T15:13:36;15.07;;;8.13;;
6513;SDS011;3290;47.716;9.070;2023-01-28T15:16:05;19.13;;;9.00;;
6513;SDS011;3290;47.716;9.070;2023-01-28T15:18:31;15.60;;;9.50;;
6513;SDS011;3290;47.716;9.070;2023-01-28T15:20:59;13.23;;;7.83;;
6513;SDS011;3290;47.716;9.070;2023-01-28T15:23:27;16.00;;;8.80;;
6513;SDS011;3290;47.716;9.070;2023-01-28T15:25:57;17.47;;;9.40;;
6513;SDS011;3290;47.716;9.070;2023-01-28T15:28:30;13.43;;;7.70;;
6513;SDS011;3290;47.716;9.070;2023-01-28T15:30:57;14.53;;;8.77;;
6513;SDS011;3290;47.716;9.070;2023-01-28T15:33:23;17.10;;;9.00;;
6513;SDS011;3290;47.716;9.070;2023-01-28T15:35:50;16.50;;;8.03;;
6513;SDS011;3290;47.716;9.070;2023-01-28T15:38:17;16.10;;;9.03;;
6513;SDS011;3290;47.716;9.070;2023-01-28T15:40:44;16.97;;;7.97;;
6513;SDS011;3290;47.716;9.070;2023-01-28T15:43:15;14.93;;;8.00;;
6513;SDS011;3290;47.716;9.070;2023-01-28T15:45:44;22.57;;;9.50;;
6513;SDS011;3290;47.716;9.070;2023-01-28T15:48:12;16.33;;;9.10;;
6513;SDS011;3290;47.716;9.070;2023-01-28T15:50:39;16.67;;;7.40;;
6513;SDS011;3290;47.716;9.070;2023-01-28T15:53:08;15.20;;;8.63;;
6513;SDS011;3290;47.716;9.070;2023-01-28T15:55:36;16.43;;;8.63;;
6513;SDS011;3290;47.716;9.070;2023-01-28T15:58:20;13.30;;;7.17;;
6513;SDS011;3290;47.716;9.070;2023-01-28T16:00:49;15.37;;;8.10;;
6513;SDS011;3290;47.716;9.070;2023-01-28T16:03:25;19.47;;;9.17;;
6513;SDS011;3290;47.716;9.070;2023-01-28T16:06:34;19.60;;;9.67;;
6513;SDS011;3290;47.716;9.070;2023-01-28T16:08:52;15.73;;;9.00;;
6513;SDS011;3290;47.716;9.070;2023-01-28T16:11:40;14.10;;;7.43;;
6513;SDS011;3290;47.716;9.070;2023-01-28T16:14:26;18.53;;;9.07;;
6513;SDS011;3290;47.716;9.070;2023-01-28T16:16:58;12.90;;;7.43;;
6513;SDS011;3290;47.716;9.070;2023-01-28T16:19:40;15.10;;;8.53;;
6513;SDS011;3290;47.716;9.070;2023-01-28T16:22:19;14.03;;;8.10;;
6513;SDS011;3290;47.716;9.070;2023-01-28T16:24:51;12.77;;;7.50;;
6513;SDS011;3290;47.716;9.070;2023-01-28T16:27:27;14.67;;;7.80;;
6513;SDS011;3290;47.716;9.070;2023-01-28T16:29:55;13.93;;;7.70;;
6513;SDS011;3290;47.716;9.070;2023-01-28T16:34:58;11.73;;;7.20;;
6513;SDS011;3290;47.716;9.070;2023-01-28T16:37:23;17.10;;;8.57;;
6513;SDS011;3290;47.716;9.070;2023-01-28T16:39:49;14.13;;;8.30;;
6513;SDS011;3290;47.716;9.070;2023-01-28T16:42:14;12.10;;;6.40;;
6513;SDS011;3290;47.716;9.070;2023-01-28T16:44:40;23.63;;;6.90;;
6513;SDS011;3290;47.716;9.070;2023-01-28T16:47:06;13.60;;;6.90;;
6513;SDS011;3290;47.716;9.070;2023-01-28T16:49:32;11.43;;;6.97;;
6513;SDS011;3290;47.716;9.070;2023-01-28T16:51:58;15.70;;;7.93;;
6513;SDS011;3290;47.716;9.070;2023-01-28T16:54:24;11.97;;;7.30;;
6513;SDS011;3290;47.716;9.070;2023-01-28T16:56:49;17.70;;;8.17;;
6513;SDS011;3290;47.716;9.070;2023-01-28T16:59:15;14.23;;;9.60;;
6513;SDS011;3290;47.716;9.070;2023-01-28T17:01:41;13.30;;;8.00;;
6513;SDS011;3290;47.716;9.070;2023-01-28T17:04:08;11.80;;;6.60;;
6513;SDS011;3290;47.716;9.070;2023-01-28T17:06:33;13.17;;;7.00;;
6513;SDS011;3290;47.716;9.070;2023-01-28T17:09:02;26.87;;;8.80;;
6513;SDS011;3290;47.716;9.070;2023-01-28T17:11:29;18.83;;;9.43;;
6513;SDS011;3290;47.716;9.070;2023-01-28T17:13:54;15.70;;;8.67;;
6513;SDS011;3290;47.716;9.070;2023-01-28T17:16:19;14.67;;;8.13;;
6513;SDS011;3290;47.716;9.070;2023-01-28T17:18:48;18.50;;;8.47;;
6513;SDS011;3290;47.716;9.070;2023-01-28T17:21:18;18.83;;;8.53;;
6513;SDS011;3290;47.716;9.070;2023-01-28T17:23:43;20.90;;;10.27;;
6513;SDS011;3290;47.716;9.070;2023-01-28T17:26:09;19.37;;;9.97;;
6513;SDS011;3290;47.716;9.070;2023-01-28T17:28:38;19.20;;;9.77;;
6513;SDS011;3290;47.716;9.070;2023-01-28T17:31:08;20.80;;;9.87;;
6513;SDS011;3290;47.716;9.070;2023-01-28T17:33:38;22.00;;;10.33;;
6513;SDS011;3290;47.716;9.070;2023-01-28T17:36:04;15.23;;;9.20;;